sensor_id;sensor_type;location;lat;lon;timestamp;pressure;altitude;pressure_sealevel;temperature;humidity
49645;BME280;36494;50.730;-1.932;2022-11-15T00:00:55;99776.98;;;12.05;100.00
49645;BME280;36494;50.730;-1.932;2022-11-15T00:03:22;99771.79;;;12.03;100.00
49645;BME280;36494;50.730;-1.932;2022-11-15T00:05:45;99767.80;;;12.02;100.00
49645;BME280;36494;50.730;-1.932;2022-11-15T00:08:10;99768.09;;;12.05;100.00
49645;BME280;36494;50.730;-1.932;2022-11-15T00:10:36;99761.47;;;12.10;100.00
49645;BME280;36494;50.730;-1.932;2022-11-15T00:13:05;99758.99;;;12.13;100.00
49645;BME280;36494;50.730;-1.932;2022-11-15T00:15:26;99755.96;;;12.13;100.00
49645;BME280;36494;50.730;-1.932;2022-11-15T00:17:52;99747.99;;;12.13;100.00
49645;BME280;36494;50.730;-1.932;2022-11-15T00:20:17;99745.70;;;12.14;100.00
49645;BME280;36494;50.730;-1.932;2022-11-15T00:22:42;99737.68;;;12.13;100.00
49645;BME280;36494;50.730;-1.932;2022-11-15T00:25:08;99730.09;;;12.17;100.00
49645;BME280;36494;50.730;-1.932;2022-11-15T00:27:33;99718.90;;;12.24;100.00
49645;BME280;36494;50.730;-1.932;2022-11-15T00:29:58;99709.03;;;12.19;100.00
49645;BME280;36494;50.730;-1.932;2022-11-15T00:32:24;99701.62;;;12.20;100.00
49645;BME280;36494;50.730;-1.932;2022-11-15T00:34:50;99688.88;;;12.20;100.00
49645;BME280;36494;50.730;-1.932;2022-11-15T00:37:15;99684.04;;;12.30;100.00
49645;BME280;36494;50.730;-1.932;2022-11-15T00:39:41;99671.79;;;12.24;100.00
49645;BME280;36494;50.730;-1.932;2022-11-15T00:42:06;99668.96;;;12.27;100.00
49645;BME280;36494;50.730;-1.932;2022-11-15T00:44:32;99666.59;;;12.31;100.00
49645;BME280;36494;50.730;-1.932;2022-11-15T00:46:57;99665.99;;;12.26;100.00
49645;BME280;36494;50.730;-1.932;2022-11-15T00:49:22;99657.96;;;12.24;100.00
49645;BME280;36494;50.730;-1.932;2022-11-15T00:51:48;99658.18;;;12.27;100.00
49645;BME280;36494;50.730;-1.932;2022-11-15T00:54:13;99648.31;;;12.32;100.00
49645;BME280;36494;50.730;-1.932;2022-11-15T00:56:38;99643.70;;;12.29;100.00
49645;BME280;36494;50.730;-1.932;2022-11-15T00:59:04;99637.51;;;12.27;100.00
49645;BME280;36494;50.730;-1.932;2022-11-15T01:01:29;99633.14;;;12.30;100.00
49645;BME280;36494;50.730;-1.932;2022-11-15T01:03:54;99623.84;;;12.25;100.00
49645;BME280;36494;50.730;-1.932;2022-11-15T01:06:20;99611.54;;;12.24;100.00
49645;BME280;36494;50.730;-1.932;2022-11-15T01:08:46;99611.79;;;12.25;100.00
49645;BME280;36494;50.730;-1.932;2022-11-15T01:11:12;99598.38;;;12.21;100.00
49645;BME280;36494;50.730;-1.932;2022-11-15T01:13:37;99590.50;;;12.24;100.00
49645;BME280;36494;50.730;-1.932;2022-11-15T01:16:06;99583.30;;;12.21;100.00
49645;BME280;36494;50.730;-1.932;2022-11-15T01:18:27;99579.87;;;12.21;100.00
49645;BME280;36494;50.730;-1.932;2022-11-15T01:20:52;99575.94;;;12.16;100.00
49645;BME280;36494;50.730;-1.932;2022-11-15T01:23:17;99570.46;;;12.21;100.00
49645;BME280;36494;50.730;-1.932;2022-11-15T01:25:43;99568.74;;;12.20;100.00
49645;BME280;36494;50.730;-1.932;2022-11-15T01:28:09;99565.81;;;12.23;100.00
49645;BME280;36494;50.730;-1.932;2022-11-15T01:30:36;99573.48;;;12.25;100.00
49645;BME280;36494;50.730;-1.932;2022-11-15T01:33:00;99559.53;;;12.21;100.00
49645;BME280;36494;50.730;-1.932;2022-11-15T01:35:25;99559.51;;;12.24;100.00
49645;BME280;36494;50.730;-1.932;2022-11-15T01:37:51;99557.94;;;12.23;100.00
49645;BME280;36494;50.730;-1.932;2022-11-15T01:40:16;99545.13;;;12.22;100.00
49645;BME280;36494;50.730;-1.932;2022-11-15T01:42:42;99546.65;;;12.24;100.00
49645;BME280;36494;50.730;-1.932;2022-11-15T01:45:12;99545.11;;;12.28;100.00
49645;BME280;36494;50.730;-1.932;2022-11-15T01:47:36;99537.27;;;12.24;100.00
49645;BME280;36494;50.730;-1.932;2022-11-15T01:50:01;99530.26;;;12.21;100.00
49645;BME280;36494;50.730;-1.932;2022-11-15T01:52:25;99524.98;;;12.23;100.00
49645;BME280;36494;50.730;-1.932;2022-11-15T01:54:52;99521.99;;;12.17;100.00
49645;BME280;36494;50.730;-1.932;2022-11-15T01:57:14;99511.81;;;12.05;100.00
49645;BME280;36494;50.730;-1.932;2022-11-15T01:59:41;99511.53;;;11.89;100.00
49645;BME280;36494;50.730;-1.932;2022-11-15T02:02:04;99507.67;;;11.90;100.00
49645;BME280;36494;50.730;-1.932;2022-11-15T02:04:32;99499.68;;;11.86;100.00
49645;BME280;36494;50.730;-1.932;2022-11-15T02:06:55;99483.04;;;11.76;100.00
49645;BME280;36494;50.730;-1.932;2022-11-15T02:09:20;99477.52;;;11.73;100.00
49645;BME280;36494;50.730;-1.932;2022-11-15T02:11:46;99472.36;;;11.76;100.00
49645;BME280;36494;50.730;-1.932;2022-11-15T02:14:11;99468.72;;;11.77;100.00
49645;BME280;36494;50.730;-1.932;2022-11-15T02:16:43;99461.00;;;11.77;100.00
49645;BME280;36494;50.730;-1.932;2022-11-15T02:19:12;99459.46;;;11.74;100.00
49645;BME280;36494;50.730;-1.932;2022-11-15T02:21:33;99454.69;;;11.72;100.00
49645;BME280;36494;50.730;-1.932;2022-11-15T02:24:11;99456.72;;;11.70;100.00
49645;BME280;36494;50.730;-1.932;2022-11-15T02:26:34;99454.54;;;11.57;100.00
49645;BME280;36494;50.730;-1.932;2022-11-15T02:28:50;99454.91;;;11.63;100.00
49645;BME280;36494;50.730;-1.932;2022-11-15T02:31:14;99454.74;;;11.49;100.00
49645;BME280;36494;50.730;-1.932;2022-11-15T02:33:41;99450.92;;;11.47;100.00
49645;BME280;36494;50.730;-1.932;2022-11-15T02:36:02;99441.59;;;11.42;100.00
49645;BME280;36494;50.730;-1.932;2022-11-15T02:38:32;99429.17;;;11.37;100.00
49645;BME280;36494;50.730;-1.932;2022-11-15T02:40:54;99428.73;;;11.27;100.00
49645;BME280;36494;50.730;-1.932;2022-11-15T02:43:21;99429.82;;;11.25;100.00
49645;BME280;36494;50.730;-1.932;2022-11-15T02:45:44;99415.20;;;11.21;100.00
49645;BME280;36494;50.730;-1.932;2022-11-15T02:48:07;99415.85;;;11.20;100.00
49645;BME280;36494;50.730;-1.932;2022-11-15T02:50:33;99423.21;;;11.17;100.00
49645;BME280;36494;50.730;-1.932;2022-11-15T02:52:58;99411.90;;;11.19;100.00
49645;BME280;36494;50.730;-1.932;2022-11-15T02:55:28;99404.81;;;11.22;100.00
49645;BME280;36494;50.730;-1.932;2022-11-15T02:57:52;99397.74;;;11.23;100.00
49645;BME280;36494;50.730;-1.932;2022-11-15T03:00:17;99382.72;;;11.19;100.00
49645;BME280;36494;50.730;-1.932;2022-11-15T03:02:51;99383.84;;;11.20;100.00
49645;BME280;36494;50.730;-1.932;2022-11-15T03:05:13;99375.14;;;11.20;100.00
49645;BME280;36494;50.730;-1.932;2022-11-15T03:07:35;99369.83;;;11.23;100.00
49645;BME280;36494;50.730;-1.932;2022-11-15T03:10:02;99363.01;;;11.23;100.00
49645;BME280;36494;50.730;-1.932;2022-11-15T03:12:27;99363.72;;;11.23;100.00
49645;BME280;36494;50.730;-1.932;2022-11-15T03:14:50;99348.27;;;11.17;100.00
49645;BME280;36494;50.730;-1.932;2022-11-15T03:17:16;99347.11;;;11.18;100.00
49645;BME280;36494;50.730;-1.932;2022-11-15T03:19:40;99323.67;;;11.10;100.00
49645;BME280;36494;50.730;-1.932;2022-11-15T03:22:04;99324.57;;;11.15;100.00
49645;BME280;36494;50.730;-1.932;2022-11-15T03:24:28;99316.69;;;11.16;100.00
49645;BME280;36494;50.730;-1.932;2022-11-15T03:26:53;99316.09;;;11.12;100.00
49645;BME280;36494;50.730;-1.932;2022-11-15T03:29:22;99299.81;;;11.16;100.00
49645;BME280;36494;50.730;-1.932;2022-11-15T03:31:45;99299.42;;;11.10;100.00
49645;BME280;36494;50.730;-1.932;2022-11-15T03:34:14;99280.85;;;11.09;100.00
49645;BME280;36494;50.730;-1.932;2022-11-15T03:36:34;99280.38;;;11.10;100.00
49645;BME280;36494;50.730;-1.932;2022-11-15T03:39:02;99280.77;;;11.12;100.00
49645;BME280;36494;50.730;-1.932;2022-11-15T03:41:28;99273.24;;;11.14;100.00
49645;BME280;36494;50.730;-1.932;2022-11-15T03:43:53;99274.12;;;11.22;100.00
49645;BME280;36494;50.730;-1.932;2022-11-15T03:46:19;99276.82;;;11.20;100.00
49645;BME280;36494;50.730;-1.932;2022-11-15T03:48:44;99267.28;;;11.25;100.00
49645;BME280;36494;50.730;-1.932;2022-11-15T03:51:06;99265.20;;;11.21;100.00
49645;BME280;36494;50.730;-1.932;2022-11-15T03:53:31;99262.14;;;11.18;100.00
49645;BME280;36494;50.730;-1.932;2022-11-15T03:55:56;99266.48;;;11.22;100.00
49645;BME280;36494;50.730;-1.932;2022-11-15T03:58:22;99263.30;;;11.21;100.00
49645;BME280;36494;50.730;-1.932;2022-11-15T04:00:47;99252.14;;;11.22;100.00
49645;BME280;36494;50.730;-1.932;2022-11-15T04:03:13;99246.20;;;11.19;100.00
49645;BME280;36494;50.730;-1.932;2022-11-15T04:05:38;99241.54;;;11.20;100.00
49645;BME280;36494;50.730;-1.932;2022-11-15T04:08:04;99239.07;;;11.21;100.00
49645;BME280;36494;50.730;-1.932;2022-11-15T04:10:29;99231.00;;;11.17;100.00
49645;BME280;36494;50.730;-1.932;2022-11-15T04:12:55;99221.91;;;11.16;100.00
49645;BME280;36494;50.730;-1.932;2022-11-15T04:15:23;99211.92;;;11.21;100.00
49645;BME280;36494;50.730;-1.932;2022-11-15T04:17:47;99215.26;;;11.25;100.00
49645;BME280;36494;50.730;-1.932;2022-11-15T04:20:13;99211.63;;;11.24;100.00
49645;BME280;36494;50.730;-1.932;2022-11-15T04:22:36;99203.98;;;11.22;100.00
49645;BME280;36494;50.730;-1.932;2022-11-15T04:25:02;99200.40;;;11.15;100.00
49645;BME280;36494;50.730;-1.932;2022-11-15T04:27:27;99201.24;;;11.17;100.00
49645;BME280;36494;50.730;-1.932;2022-11-15T04:29:53;99186.46;;;11.16;100.00
49645;BME280;36494;50.730;-1.932;2022-11-15T04:32:19;99195.18;;;11.15;100.00
49645;BME280;36494;50.730;-1.932;2022-11-15T04:34:44;99188.31;;;11.13;100.00
49645;BME280;36494;50.730;-1.932;2022-11-15T04:37:10;99190.50;;;11.20;100.00
49645;BME280;36494;50.730;-1.932;2022-11-15T04:39:35;99187.90;;;11.22;100.00
49645;BME280;36494;50.730;-1.932;2022-11-15T04:42:00;99174.43;;;11.20;100.00
49645;BME280;36494;50.730;-1.932;2022-11-15T04:44:25;99171.64;;;11.18;100.00
49645;BME280;36494;50.730;-1.932;2022-11-15T04:46:51;99162.83;;;11.19;100.00
49645;BME280;36494;50.730;-1.932;2022-11-15T04:49:17;99158.46;;;11.22;100.00
49645;BME280;36494;50.730;-1.932;2022-11-15T04:51:42;99150.08;;;11.22;100.00
49645;BME280;36494;50.730;-1.932;2022-11-15T04:54:08;99149.09;;;11.22;100.00
49645;BME280;36494;50.730;-1.932;2022-11-15T04:56:33;99154.18;;;11.21;100.00
49645;BME280;36494;50.730;-1.932;2022-11-15T04:58:59;99146.09;;;11.24;100.00
49645;BME280;36494;50.730;-1.932;2022-11-15T05:01:24;99138.07;;;11.24;100.00
49645;BME280;36494;50.730;-1.932;2022-11-15T05:03:49;99130.10;;;11.26;100.00
49645;BME280;36494;50.730;-1.932;2022-11-15T05:06:15;99121.00;;;11.26;100.00
49645;BME280;36494;50.730;-1.932;2022-11-15T05:08:40;99117.74;;;11.30;100.00
49645;BME280;36494;50.730;-1.932;2022-11-15T05:11:06;99108.49;;;11.31;100.00
49645;BME280;36494;50.730;-1.932;2022-11-15T05:13:31;99106.55;;;11.37;100.00
49645;BME280;36494;50.730;-1.932;2022-11-15T05:15:56;99104.39;;;11.38;100.00
49645;BME280;36494;50.730;-1.932;2022-11-15T05:18:22;99103.10;;;11.37;100.00
49645;BME280;36494;50.730;-1.932;2022-11-15T05:20:47;99101.11;;;11.40;100.00
49645;BME280;36494;50.730;-1.932;2022-11-15T05:23:13;99103.95;;;11.41;100.00
49645;BME280;36494;50.730;-1.932;2022-11-15T05:25:38;99100.76;;;11.44;100.00
49645;BME280;36494;50.730;-1.932;2022-11-15T05:28:03;99090.21;;;11.37;100.00
49645;BME280;36494;50.730;-1.932;2022-11-15T05:30:29;99079.89;;;11.37;100.00
49645;BME280;36494;50.730;-1.932;2022-11-15T05:32:55;99079.81;;;11.40;100.00
49645;BME280;36494;50.730;-1.932;2022-11-15T05:35:26;99068.36;;;11.42;100.00
49645;BME280;36494;50.730;-1.932;2022-11-15T05:37:46;99069.27;;;11.42;100.00
49645;BME280;36494;50.730;-1.932;2022-11-15T05:40:11;99072.71;;;11.41;100.00
49645;BME280;36494;50.730;-1.932;2022-11-15T05:42:36;99055.54;;;11.42;100.00
49645;BME280;36494;50.730;-1.932;2022-11-15T05:45:03;99055.98;;;11.43;100.00
49645;BME280;36494;50.730;-1.932;2022-11-15T05:47:29;99041.27;;;11.40;100.00
49645;BME280;36494;50.730;-1.932;2022-11-15T05:49:53;99042.48;;;11.41;100.00
49645;BME280;36494;50.730;-1.932;2022-11-15T05:52:21;99040.06;;;11.45;100.00
49645;BME280;36494;50.730;-1.932;2022-11-15T05:54:43;99038.21;;;11.51;100.00
49645;BME280;36494;50.730;-1.932;2022-11-15T05:57:08;99041.68;;;11.53;100.00
49645;BME280;36494;50.730;-1.932;2022-11-15T05:59:34;99026.32;;;11.54;100.00
49645;BME280;36494;50.730;-1.932;2022-11-15T06:01:59;99034.23;;;11.52;100.00
49645;BME280;36494;50.730;-1.932;2022-11-15T06:04:24;99028.12;;;11.51;100.00
49645;BME280;36494;50.730;-1.932;2022-11-15T06:06:49;99016.29;;;11.51;100.00
49645;BME280;36494;50.730;-1.932;2022-11-15T06:09:15;99030.43;;;11.53;100.00
49645;BME280;36494;50.730;-1.932;2022-11-15T06:11:40;99017.21;;;11.54;100.00
49645;BME280;36494;50.730;-1.932;2022-11-15T06:14:05;99020.45;;;11.61;100.00
49645;BME280;36494;50.730;-1.932;2022-11-15T06:16:30;99015.93;;;11.59;100.00
49645;BME280;36494;50.730;-1.932;2022-11-15T06:18:56;99015.76;;;11.58;100.00
49645;BME280;36494;50.730;-1.932;2022-11-15T06:21:21;99008.44;;;11.54;100.00
49645;BME280;36494;50.730;-1.932;2022-11-15T06:23:47;99006.06;;;11.52;100.00
49645;BME280;36494;50.730;-1.932;2022-11-15T06:26:12;99000.22;;;11.53;100.00
49645;BME280;36494;50.730;-1.932;2022-11-15T06:28:38;99002.02;;;11.54;100.00
49645;BME280;36494;50.730;-1.932;2022-11-15T06:31:04;98998.73;;;11.54;100.00
49645;BME280;36494;50.730;-1.932;2022-11-15T06:33:29;98999.37;;;11.52;100.00
49645;BME280;36494;50.730;-1.932;2022-11-15T06:35:54;98981.05;;;11.51;100.00
49645;BME280;36494;50.730;-1.932;2022-11-15T06:38:20;98978.60;;;11.49;100.00
49645;BME280;36494;50.730;-1.932;2022-11-15T06:40:45;98981.47;;;11.55;100.00
49645;BME280;36494;50.730;-1.932;2022-11-15T06:43:11;98968.96;;;11.52;100.00
49645;BME280;36494;50.730;-1.932;2022-11-15T06:45:36;98969.84;;;11.52;100.00
49645;BME280;36494;50.730;-1.932;2022-11-15T06:48:01;98972.85;;;11.56;100.00
49645;BME280;36494;50.730;-1.932;2022-11-15T06:50:26;98962.93;;;11.56;100.00
49645;BME280;36494;50.730;-1.932;2022-11-15T06:52:52;98951.24;;;11.58;100.00
49645;BME280;36494;50.730;-1.932;2022-11-15T06:55:17;98941.57;;;11.61;100.00
49645;BME280;36494;50.730;-1.932;2022-11-15T06:57:48;98946.27;;;11.63;100.00
49645;BME280;36494;50.730;-1.932;2022-11-15T07:00:09;98940.27;;;11.68;100.00
49645;BME280;36494;50.730;-1.932;2022-11-15T07:02:33;98941.25;;;11.71;100.00
49645;BME280;36494;50.730;-1.932;2022-11-15T07:04:58;98947.26;;;11.74;100.00
49645;BME280;36494;50.730;-1.932;2022-11-15T07:07:23;98936.77;;;11.73;100.00
49645;BME280;36494;50.730;-1.932;2022-11-15T07:09:49;98935.60;;;11.68;100.00
49645;BME280;36494;50.730;-1.932;2022-11-15T07:12:15;98932.00;;;11.65;100.00
49645;BME280;36494;50.730;-1.932;2022-11-15T07:14:40;98929.91;;;11.69;100.00
49645;BME280;36494;50.730;-1.932;2022-11-15T07:17:05;98930.70;;;11.67;100.00
49645;BME280;36494;50.730;-1.932;2022-11-15T07:19:31;98925.45;;;11.68;100.00
49645;BME280;36494;50.730;-1.932;2022-11-15T07:21:55;98914.07;;;11.62;100.00
49645;BME280;36494;50.730;-1.932;2022-11-15T07:24:21;98911.54;;;11.63;100.00
49645;BME280;36494;50.730;-1.932;2022-11-15T07:26:46;98909.89;;;11.65;100.00
49645;BME280;36494;50.730;-1.932;2022-11-15T07:29:11;98897.46;;;11.67;100.00
49645;BME280;36494;50.730;-1.932;2022-11-15T07:31:36;98905.66;;;11.67;100.00
49645;BME280;36494;50.730;-1.932;2022-11-15T07:34:01;98906.26;;;11.70;100.00
49645;BME280;36494;50.730;-1.932;2022-11-15T07:36:26;98896.52;;;11.70;100.00
49645;BME280;36494;50.730;-1.932;2022-11-15T07:38:52;98893.54;;;11.71;100.00
49645;BME280;36494;50.730;-1.932;2022-11-15T07:41:17;98895.38;;;11.74;100.00
49645;BME280;36494;50.730;-1.932;2022-11-15T07:43:43;98902.53;;;11.76;100.00
49645;BME280;36494;50.730;-1.932;2022-11-15T07:46:09;98905.39;;;11.78;100.00
49645;BME280;36494;50.730;-1.932;2022-11-15T07:48:34;98903.35;;;11.82;100.00
49645;BME280;36494;50.730;-1.932;2022-11-15T07:50:59;98901.20;;;11.80;100.00
49645;BME280;36494;50.730;-1.932;2022-11-15T07:53:24;98900.66;;;11.78;100.00
49645;BME280;36494;50.730;-1.932;2022-11-15T07:55:50;98906.81;;;11.80;100.00
49645;BME280;36494;50.730;-1.932;2022-11-15T07:58:15;98900.44;;;11.78;100.00
49645;BME280;36494;50.730;-1.932;2022-11-15T08:00:41;98902.96;;;11.75;100.00
49645;BME280;36494;50.730;-1.932;2022-11-15T08:03:07;98904.52;;;11.77;100.00
49645;BME280;36494;50.730;-1.932;2022-11-15T08:05:31;98896.35;;;11.78;100.00
49645;BME280;36494;50.730;-1.932;2022-11-15T08:07:56;98896.66;;;11.76;100.00
49645;BME280;36494;50.730;-1.932;2022-11-15T08:10:22;98901.20;;;11.77;100.00
49645;BME280;36494;50.730;-1.932;2022-11-15T08:12:47;98893.39;;;11.75;100.00
49645;BME280;36494;50.730;-1.932;2022-11-15T08:15:13;98890.37;;;11.77;100.00
49645;BME280;36494;50.730;-1.932;2022-11-15T08:17:37;98893.91;;;11.75;100.00
49645;BME280;36494;50.730;-1.932;2022-11-15T08:20:04;98897.74;;;11.78;100.00
49645;BME280;36494;50.730;-1.932;2022-11-15T08:22:29;98885.53;;;11.80;100.00
49645;BME280;36494;50.730;-1.932;2022-11-15T08:24:54;98882.04;;;11.77;100.00
49645;BME280;36494;50.730;-1.932;2022-11-15T08:27:21;98878.77;;;11.80;100.00
49645;BME280;36494;50.730;-1.932;2022-11-15T08:29:47;98877.88;;;11.80;100.00
49645;BME280;36494;50.730;-1.932;2022-11-15T08:32:12;98876.98;;;11.83;100.00
49645;BME280;36494;50.730;-1.932;2022-11-15T08:34:38;98873.81;;;11.81;100.00
49645;BME280;36494;50.730;-1.932;2022-11-15T08:37:02;98886.06;;;11.83;100.00
49645;BME280;36494;50.730;-1.932;2022-11-15T08:39:28;98877.49;;;11.87;100.00
49645;BME280;36494;50.730;-1.932;2022-11-15T08:41:53;98858.30;;;11.82;100.00
49645;BME280;36494;50.730;-1.932;2022-11-15T08:44:18;98867.21;;;11.81;100.00
49645;BME280;36494;50.730;-1.932;2022-11-15T08:46:45;98867.89;;;11.81;100.00
49645;BME280;36494;50.730;-1.932;2022-11-15T08:49:09;98865.13;;;11.83;100.00
49645;BME280;36494;50.730;-1.932;2022-11-15T08:51:34;98863.48;;;11.91;100.00
49645;BME280;36494;50.730;-1.932;2022-11-15T08:53:59;98843.13;;;11.90;100.00
49645;BME280;36494;50.730;-1.932;2022-11-15T08:56:25;98825.17;;;11.89;100.00
49645;BME280;36494;50.730;-1.932;2022-11-15T08:58:50;98817.07;;;11.91;100.00
49645;BME280;36494;50.730;-1.932;2022-11-15T09:01:18;98807.37;;;11.89;100.00
49645;BME280;36494;50.730;-1.932;2022-11-15T09:03:41;98813.88;;;11.97;100.00
49645;BME280;36494;50.730;-1.932;2022-11-15T09:06:07;98807.24;;;11.96;100.00
49645;BME280;36494;50.730;-1.932;2022-11-15T09:08:32;98803.43;;;11.98;100.00
49645;BME280;36494;50.730;-1.932;2022-11-15T09:10:57;98799.46;;;11.96;100.00
49645;BME280;36494;50.730;-1.932;2022-11-15T09:13:23;98804.37;;;11.95;100.00
49645;BME280;36494;50.730;-1.932;2022-11-15T09:15:48;98799.80;;;11.96;100.00
49645;BME280;36494;50.730;-1.932;2022-11-15T09:18:13;98799.25;;;12.01;100.00
49645;BME280;36494;50.730;-1.932;2022-11-15T09:20:39;98792.76;;;12.00;100.00
49645;BME280;36494;50.730;-1.932;2022-11-15T09:23:05;98789.88;;;12.00;100.00
49645;BME280;36494;50.730;-1.932;2022-11-15T09:25:30;98791.42;;;12.04;100.00
49645;BME280;36494;50.730;-1.932;2022-11-15T09:27:55;98773.19;;;12.06;100.00
49645;BME280;36494;50.730;-1.932;2022-11-15T09:30:21;98770.16;;;12.13;100.00
49645;BME280;36494;50.730;-1.932;2022-11-15T09:32:46;98758.03;;;12.09;100.00
49645;BME280;36494;50.730;-1.932;2022-11-15T09:35:11;98759.71;;;12.13;100.00
49645;BME280;36494;50.730;-1.932;2022-11-15T09:37:37;98752.16;;;12.14;100.00
49645;BME280;36494;50.730;-1.932;2022-11-15T09:40:02;98759.98;;;12.15;100.00
49645;BME280;36494;50.730;-1.932;2022-11-15T09:42:43;98744.10;;;12.20;100.00
49645;BME280;36494;50.730;-1.932;2022-11-15T09:45:04;98746.77;;;12.25;100.00
49645;BME280;36494;50.730;-1.932;2022-11-15T09:47:34;98736.35;;;12.27;100.00
49645;BME280;36494;50.730;-1.932;2022-11-15T09:49:43;98731.04;;;12.32;100.00
49645;BME280;36494;50.730;-1.932;2022-11-15T09:52:10;98728.32;;;12.34;100.00
49645;BME280;36494;50.730;-1.932;2022-11-15T09:54:35;98723.13;;;12.37;100.00
49645;BME280;36494;50.730;-1.932;2022-11-15T09:57:04;98712.86;;;12.40;100.00
49645;BME280;36494;50.730;-1.932;2022-11-15T09:59:39;98720.38;;;12.46;100.00
49645;BME280;36494;50.730;-1.932;2022-11-15T10:01:56;98718.11;;;12.48;100.00
49645;BME280;36494;50.730;-1.932;2022-11-15T10:04:16;98698.75;;;12.51;100.00
49645;BME280;36494;50.730;-1.932;2022-11-15T10:06:49;98690.46;;;12.56;100.00
49645;BME280;36494;50.730;-1.932;2022-11-15T10:09:13;98693.58;;;12.61;100.00
49645;BME280;36494;50.730;-1.932;2022-11-15T10:11:35;98692.12;;;12.62;100.00
49645;BME280;36494;50.730;-1.932;2022-11-15T10:14:01;98684.14;;;12.67;100.00
49645;BME280;36494;50.730;-1.932;2022-11-15T10:18:56;98680.89;;;12.75;100.00
49645;BME280;36494;50.730;-1.932;2022-11-15T10:21:17;98685.47;;;12.77;100.00
49645;BME280;36494;50.730;-1.932;2022-11-15T10:23:41;98684.33;;;12.78;100.00
49645;BME280;36494;50.730;-1.932;2022-11-15T10:26:09;98680.02;;;12.78;100.00
49645;BME280;36494;50.730;-1.932;2022-11-15T10:28:32;98672.50;;;12.81;100.00
49645;BME280;36494;50.730;-1.932;2022-11-15T10:30:59;98677.66;;;12.87;100.00
49645;BME280;36494;50.730;-1.932;2022-11-15T10:33:26;98688.83;;;12.89;100.00
49645;BME280;36494;50.730;-1.932;2022-11-15T10:35:48;98682.09;;;12.89;100.00
49645;BME280;36494;50.730;-1.932;2022-11-15T10:38:13;98715.10;;;12.97;100.00
49645;BME280;36494;50.730;-1.932;2022-11-15T10:40:40;98707.60;;;12.89;100.00
49645;BME280;36494;50.730;-1.932;2022-11-15T10:43:10;98703.03;;;12.92;100.00
49645;BME280;36494;50.730;-1.932;2022-11-15T10:45:31;98702.51;;;12.95;100.00
49645;BME280;36494;50.730;-1.932;2022-11-15T10:50:27;98708.57;;;12.84;100.00
49645;BME280;36494;50.730;-1.932;2022-11-15T10:52:46;98694.93;;;12.84;100.00
49645;BME280;36494;50.730;-1.932;2022-11-15T10:55:24;98680.21;;;12.80;100.00
49645;BME280;36494;50.730;-1.932;2022-11-15T10:57:37;98664.97;;;12.75;100.00
49645;BME280;36494;50.730;-1.932;2022-11-15T11:00:04;98666.59;;;12.79;100.00
49645;BME280;36494;50.730;-1.932;2022-11-15T11:02:30;98675.98;;;12.84;100.00
49645;BME280;36494;50.730;-1.932;2022-11-15T11:04:51;98669.61;;;12.89;100.00
49645;BME280;36494;50.730;-1.932;2022-11-15T11:07:22;98668.11;;;12.88;100.00
49645;BME280;36494;50.730;-1.932;2022-11-15T11:09:42;98677.04;;;12.83;100.00
49645;BME280;36494;50.730;-1.932;2022-11-15T11:12:10;98677.98;;;12.66;100.00
49645;BME280;36494;50.730;-1.932;2022-11-15T11:14:34;98687.88;;;12.81;100.00
49645;BME280;36494;50.730;-1.932;2022-11-15T11:17:03;98690.32;;;12.81;100.00
49645;BME280;36494;50.730;-1.932;2022-11-15T11:19:35;98684.87;;;12.68;100.00
49645;BME280;36494;50.730;-1.932;2022-11-15T11:21:55;98693.72;;;12.64;100.00
49645;BME280;36494;50.730;-1.932;2022-11-15T11:24:20;98690.66;;;12.59;100.00
49645;BME280;36494;50.730;-1.932;2022-11-15T11:26:42;98692.42;;;12.59;100.00
49645;BME280;36494;50.730;-1.932;2022-11-15T11:29:15;98686.44;;;12.52;100.00
49645;BME280;36494;50.730;-1.932;2022-11-15T11:31:34;98682.81;;;12.55;100.00
49645;BME280;36494;50.730;-1.932;2022-11-15T11:34:02;98677.57;;;12.60;100.00
49645;BME280;36494;50.730;-1.932;2022-11-15T11:36:25;98685.92;;;12.78;100.00
49645;BME280;36494;50.730;-1.932;2022-11-15T11:38:55;98694.66;;;12.85;100.00
49645;BME280;36494;50.730;-1.932;2022-11-15T11:41:17;98702.53;;;12.84;100.00
49645;BME280;36494;50.730;-1.932;2022-11-15T11:43:44;98705.66;;;12.76;100.00
49645;BME280;36494;50.730;-1.932;2022-11-15T11:46:14;98706.97;;;12.77;100.00
49645;BME280;36494;50.730;-1.932;2022-11-15T11:48:39;98709.24;;;12.82;100.00
49645;BME280;36494;50.730;-1.932;2022-11-15T11:50:52;98707.03;;;12.84;100.00
49645;BME280;36494;50.730;-1.932;2022-11-15T11:53:24;98708.21;;;12.84;100.00
49645;BME280;36494;50.730;-1.932;2022-11-15T11:55:44;98712.07;;;12.94;100.00
49645;BME280;36494;50.730;-1.932;2022-11-15T11:58:13;98705.08;;;12.98;100.00
49645;BME280;36494;50.730;-1.932;2022-11-15T12:00:37;98701.68;;;13.04;100.00
49645;BME280;36494;50.730;-1.932;2022-11-15T12:03:05;98703.33;;;13.12;100.00
49645;BME280;36494;50.730;-1.932;2022-11-15T12:05:30;98702.89;;;13.28;100.00
49645;BME280;36494;50.730;-1.932;2022-11-15T12:07:50;98711.00;;;13.40;100.00
49645;BME280;36494;50.730;-1.932;2022-11-15T12:10:20;98714.15;;;13.74;100.00
49645;BME280;36494;50.730;-1.932;2022-11-15T12:12:45;98710.02;;;13.93;100.00
49645;BME280;36494;50.730;-1.932;2022-11-15T12:15:11;98717.09;;;13.76;100.00
49645;BME280;36494;50.730;-1.932;2022-11-15T12:17:31;98706.78;;;13.71;100.00
49645;BME280;36494;50.730;-1.932;2022-11-15T12:19:56;98717.24;;;13.65;100.00
49645;BME280;36494;50.730;-1.932;2022-11-15T12:22:22;98724.99;;;13.82;100.00
49645;BME280;36494;50.730;-1.932;2022-11-15T12:24:50;98731.70;;;13.82;100.00
49645;BME280;36494;50.730;-1.932;2022-11-15T12:27:16;98734.76;;;13.51;100.00
49645;BME280;36494;50.730;-1.932;2022-11-15T12:29:38;98735.02;;;13.52;100.00
49645;BME280;36494;50.730;-1.932;2022-11-15T12:32:02;98738.57;;;13.56;100.00
49645;BME280;36494;50.730;-1.932;2022-11-15T12:34:37;98744.09;;;13.59;100.00